Terminal Aerodrome Forecast
Issued by NWS Anchorage, AK

Home | Current Version | Previous Version | Text Only | Print | Product List | Glossary On
Versions: 1 2 3 4 5 6 7 8 9 10 11 12 13 14 15 16 17 18 19 20 21 22 23 24 25 26 27 28 29 30 31 32 33 34 35 36 37 38 39 40 41 42 43
000
FTAK31 PANC 191133
TAFANC
TAF
PANC 191133Z 1912/2018 36007KT P6SM -RA BKN010 OVC020
      TEMPO 1912/1915 BKN005
     FM191700 VRB03KT P6SM -SHRA SCT010 BKN025 OVC035
     FM192200 VRB06KT P6SM VCSH SCT020 OVC045
     FM200500 17008KT P6SM -SHRA SCT030 BKN060
     FM200800 18010KT 6SM -RA BR BKN030 OVC050=

USA.gov is the U.S. government's official web portal to all federal, state and local government web resources and services.